sensor_id;sensor_type;location;lat;lon;timestamp;temperature;humidity
12568;DHT22;6349;50.904;6.136;2022-09-12T00:01:57;15.60;99.90
12568;DHT22;6349;50.904;6.136;2022-09-12T00:03:59;15.60;99.90
12568;DHT22;6349;50.904;6.136;2022-09-12T00:06:07;15.60;99.90
12568;DHT22;6349;50.904;6.136;2022-09-12T00:08:08;15.60;99.90
12568;DHT22;6349;50.904;6.136;2022-09-12T00:10:09;15.70;99.90
12568;DHT22;6349;50.904;6.136;2022-09-12T00:12:10;15.70;99.90
12568;DHT22;6349;50.904;6.136;2022-09-12T00:14:13;15.80;99.90
12568;DHT22;6349;50.904;6.136;2022-09-12T00:16:16;15.70;99.90
12568;DHT22;6349;50.904;6.136;2022-09-12T00:18:17;15.60;99.90
12568;DHT22;6349;50.904;6.136;2022-09-12T00:20:20;15.60;99.90
12568;DHT22;6349;50.904;6.136;2022-09-12T00:22:20;15.50;99.90
12568;DHT22;6349;50.904;6.136;2022-09-12T00:24:21;15.50;99.90
12568;DHT22;6349;50.904;6.136;2022-09-12T00:26:23;15.50;99.90
12568;DHT22;6349;50.904;6.136;2022-09-12T00:28:23;15.40;99.90
12568;DHT22;6349;50.904;6.136;2022-09-12T00:30:24;15.30;99.90
12568;DHT22;6349;50.904;6.136;2022-09-12T00:32:25;15.20;99.90
12568;DHT22;6349;50.904;6.136;2022-09-12T00:34:26;15.20;99.90
12568;DHT22;6349;50.904;6.136;2022-09-12T00:36:27;15.10;99.90
12568;DHT22;6349;50.904;6.136;2022-09-12T00:38:28;15.10;99.90
12568;DHT22;6349;50.904;6.136;2022-09-12T00:40:29;15.10;99.90
12568;DHT22;6349;50.904;6.136;2022-09-12T00:42:30;15.00;99.90
12568;DHT22;6349;50.904;6.136;2022-09-12T00:46:44;15.00;99.90
12568;DHT22;6349;50.904;6.136;2022-09-12T00:48:52;15.00;99.90
12568;DHT22;6349;50.904;6.136;2022-09-12T00:50:54;15.00;99.90
12568;DHT22;6349;50.904;6.136;2022-09-12T00:52:59;15.00;99.90
12568;DHT22;6349;50.904;6.136;2022-09-12T00:55:14;15.00;99.90
12568;DHT22;6349;50.904;6.136;2022-09-12T00:57:17;15.00;99.90
12568;DHT22;6349;50.904;6.136;2022-09-12T00:59:23;15.00;99.90
12568;DHT22;6349;50.904;6.136;2022-09-12T01:01:24;15.10;99.90
12568;DHT22;6349;50.904;6.136;2022-09-12T01:03:26;15.10;99.90
12568;DHT22;6349;50.904;6.136;2022-09-12T01:05:28;15.10;99.90
12568;DHT22;6349;50.904;6.136;2022-09-12T01:07:30;15.10;99.90
12568;DHT22;6349;50.904;6.136;2022-09-12T01:09:31;15.10;99.90
12568;DHT22;6349;50.904;6.136;2022-09-12T01:11:35;15.10;99.90
12568;DHT22;6349;50.904;6.136;2022-09-12T01:13:36;15.20;99.90
12568;DHT22;6349;50.904;6.136;2022-09-12T01:15:38;15.20;99.90
12568;DHT22;6349;50.904;6.136;2022-09-12T01:20:50;15.40;99.90
12568;DHT22;6349;50.904;6.136;2022-09-12T01:23:22;15.30;99.90
12568;DHT22;6349;50.904;6.136;2022-09-12T01:28:01;15.40;99.90
12568;DHT22;6349;50.904;6.136;2022-09-12T01:30:24;15.40;99.90
12568;DHT22;6349;50.904;6.136;2022-09-12T01:32:53;15.50;99.90
12568;DHT22;6349;50.904;6.136;2022-09-12T01:35:07;15.60;99.90
12568;DHT22;6349;50.904;6.136;2022-09-12T01:37:28;15.60;99.90
12568;DHT22;6349;50.904;6.136;2022-09-12T01:39:46;15.70;99.90
12568;DHT22;6349;50.904;6.136;2022-09-12T01:41:54;15.50;99.90
12568;DHT22;6349;50.904;6.136;2022-09-12T01:46:34;15.40;99.90
12568;DHT22;6349;50.904;6.136;2022-09-12T01:48:43;15.30;99.90
12568;DHT22;6349;50.904;6.136;2022-09-12T01:51:07;15.20;99.90
12568;DHT22;6349;50.904;6.136;2022-09-12T01:53:17;15.20;99.90
12568;DHT22;6349;50.904;6.136;2022-09-12T01:55:28;15.10;99.90
12568;DHT22;6349;50.904;6.136;2022-09-12T01:57:40;15.00;99.90
12568;DHT22;6349;50.904;6.136;2022-09-12T01:59:47;14.90;99.90
12568;DHT22;6349;50.904;6.136;2022-09-12T02:01:55;15.00;99.90
12568;DHT22;6349;50.904;6.136;2022-09-12T02:04:09;14.90;99.90
12568;DHT22;6349;50.904;6.136;2022-09-12T02:06:24;14.90;99.90
12568;DHT22;6349;50.904;6.136;2022-09-12T02:08:30;14.80;99.90
12568;DHT22;6349;50.904;6.136;2022-09-12T02:10:40;14.80;99.90
12568;DHT22;6349;50.904;6.136;2022-09-12T02:12:49;14.80;99.90
12568;DHT22;6349;50.904;6.136;2022-09-12T02:14:56;14.80;99.90
12568;DHT22;6349;50.904;6.136;2022-09-12T02:17:05;14.70;99.90
12568;DHT22;6349;50.904;6.136;2022-09-12T02:19:11;14.70;99.90
12568;DHT22;6349;50.904;6.136;2022-09-12T02:21:15;14.70;99.90
12568;DHT22;6349;50.904;6.136;2022-09-12T02:23:21;14.60;99.90
12568;DHT22;6349;50.904;6.136;2022-09-12T02:25:24;14.60;99.90
12568;DHT22;6349;50.904;6.136;2022-09-12T02:27:31;14.60;99.90
12568;DHT22;6349;50.904;6.136;2022-09-12T02:29:33;14.50;99.90
12568;DHT22;6349;50.904;6.136;2022-09-12T02:31:57;14.50;99.90
12568;DHT22;6349;50.904;6.136;2022-09-12T02:34:24;14.50;99.90
12568;DHT22;6349;50.904;6.136;2022-09-12T02:39:07;14.40;99.90
12568;DHT22;6349;50.904;6.136;2022-09-12T02:41:08;14.40;99.90
12568;DHT22;6349;50.904;6.136;2022-09-12T02:43:08;14.30;99.90
12568;DHT22;6349;50.904;6.136;2022-09-12T02:45:09;14.30;99.90
12568;DHT22;6349;50.904;6.136;2022-09-12T02:47:17;14.30;99.90
12568;DHT22;6349;50.904;6.136;2022-09-12T02:49:19;14.20;99.90
12568;DHT22;6349;50.904;6.136;2022-09-12T02:51:21;14.20;99.90
12568;DHT22;6349;50.904;6.136;2022-09-12T02:53:22;14.10;99.90
12568;DHT22;6349;50.904;6.136;2022-09-12T02:55:23;14.10;99.90
12568;DHT22;6349;50.904;6.136;2022-09-12T02:57:24;14.10;99.90
12568;DHT22;6349;50.904;6.136;2022-09-12T02:59:25;14.10;99.90
12568;DHT22;6349;50.904;6.136;2022-09-12T03:01:48;14.10;99.90
12568;DHT22;6349;50.904;6.136;2022-09-12T03:06:27;14.10;99.90
12568;DHT22;6349;50.904;6.136;2022-09-12T03:08:53;14.10;99.90
12568;DHT22;6349;50.904;6.136;2022-09-12T03:11:28;14.10;99.90
12568;DHT22;6349;50.904;6.136;2022-09-12T03:13:47;14.20;99.90
12568;DHT22;6349;50.904;6.136;2022-09-12T03:16:27;14.30;99.90
12568;DHT22;6349;50.904;6.136;2022-09-12T03:18:41;14.40;99.90
12568;DHT22;6349;50.904;6.136;2022-09-12T03:20:52;14.30;99.90
12568;DHT22;6349;50.904;6.136;2022-09-12T03:23:03;14.30;99.90
12568;DHT22;6349;50.904;6.136;2022-09-12T03:25:43;14.20;99.90
12568;DHT22;6349;50.904;6.136;2022-09-12T03:27:39;14.30;99.90
12568;DHT22;6349;50.904;6.136;2022-09-12T03:29:41;14.30;99.90
12568;DHT22;6349;50.904;6.136;2022-09-12T03:31:52;14.40;99.90
12568;DHT22;6349;50.904;6.136;2022-09-12T03:33:52;14.50;99.90
12568;DHT22;6349;50.904;6.136;2022-09-12T03:35:54;14.60;99.90
12568;DHT22;6349;50.904;6.136;2022-09-12T03:37:54;14.50;99.90
12568;DHT22;6349;50.904;6.136;2022-09-12T03:39:55;14.60;99.90
12568;DHT22;6349;50.904;6.136;2022-09-12T03:41:56;14.40;99.90
12568;DHT22;6349;50.904;6.136;2022-09-12T03:43:57;14.50;99.90
12568;DHT22;6349;50.904;6.136;2022-09-12T03:45:57;14.40;99.90
12568;DHT22;6349;50.904;6.136;2022-09-12T03:47:58;14.50;99.90
12568;DHT22;6349;50.904;6.136;2022-09-12T03:49:59;14.50;99.90
12568;DHT22;6349;50.904;6.136;2022-09-12T03:52:01;14.70;99.90
12568;DHT22;6349;50.904;6.136;2022-09-12T03:54:02;14.70;99.90
12568;DHT22;6349;50.904;6.136;2022-09-12T03:56:08;14.70;99.90
12568;DHT22;6349;50.904;6.136;2022-09-12T03:58:09;14.70;99.90
12568;DHT22;6349;50.904;6.136;2022-09-12T04:00:10;14.50;99.90
12568;DHT22;6349;50.904;6.136;2022-09-12T04:02:11;14.60;99.90
12568;DHT22;6349;50.904;6.136;2022-09-12T04:04:13;14.50;99.90
12568;DHT22;6349;50.904;6.136;2022-09-12T04:06:15;14.50;99.90
12568;DHT22;6349;50.904;6.136;2022-09-12T04:08:16;14.50;99.90
12568;DHT22;6349;50.904;6.136;2022-09-12T04:10:17;14.60;99.90
12568;DHT22;6349;50.904;6.136;2022-09-12T04:12:20;14.60;99.90
12568;DHT22;6349;50.904;6.136;2022-09-12T04:14:20;14.70;99.90
12568;DHT22;6349;50.904;6.136;2022-09-12T04:16:21;14.70;99.90
12568;DHT22;6349;50.904;6.136;2022-09-12T04:18:21;14.70;99.90
12568;DHT22;6349;50.904;6.136;2022-09-12T04:20:22;14.70;99.90
12568;DHT22;6349;50.904;6.136;2022-09-12T04:22:23;14.70;99.90
12568;DHT22;6349;50.904;6.136;2022-09-12T04:24:24;14.70;99.90
12568;DHT22;6349;50.904;6.136;2022-09-12T04:26:24;14.70;99.90
12568;DHT22;6349;50.904;6.136;2022-09-12T04:28:26;14.70;99.90
12568;DHT22;6349;50.904;6.136;2022-09-12T04:30:28;14.70;99.90
12568;DHT22;6349;50.904;6.136;2022-09-12T04:32:29;14.70;99.90
12568;DHT22;6349;50.904;6.136;2022-09-12T04:34:31;14.80;99.90
12568;DHT22;6349;50.904;6.136;2022-09-12T04:36:31;14.80;99.90
12568;DHT22;6349;50.904;6.136;2022-09-12T04:38:34;14.70;99.90
12568;DHT22;6349;50.904;6.136;2022-09-12T04:40:35;14.70;99.90
12568;DHT22;6349;50.904;6.136;2022-09-12T04:42:36;14.70;99.90
12568;DHT22;6349;50.904;6.136;2022-09-12T04:44:36;14.70;99.90
12568;DHT22;6349;50.904;6.136;2022-09-12T04:46:40;14.70;99.90
12568;DHT22;6349;50.904;6.136;2022-09-12T04:48:42;14.70;99.90
12568;DHT22;6349;50.904;6.136;2022-09-12T04:50:43;14.60;99.90
12568;DHT22;6349;50.904;6.136;2022-09-12T04:52:49;14.60;99.90
12568;DHT22;6349;50.904;6.136;2022-09-12T04:54:50;14.60;99.90
12568;DHT22;6349;50.904;6.136;2022-09-12T04:56:51;14.60;99.90
12568;DHT22;6349;50.904;6.136;2022-09-12T04:58:52;14.50;99.90
12568;DHT22;6349;50.904;6.136;2022-09-12T05:00:53;14.60;99.90
12568;DHT22;6349;50.904;6.136;2022-09-12T05:02:53;14.60;99.90
12568;DHT22;6349;50.904;6.136;2022-09-12T05:04:54;14.60;99.90
12568;DHT22;6349;50.904;6.136;2022-09-12T05:06:54;14.60;99.90
12568;DHT22;6349;50.904;6.136;2022-09-12T05:08:56;14.60;99.90
12568;DHT22;6349;50.904;6.136;2022-09-12T05:11:02;14.60;99.90
12568;DHT22;6349;50.904;6.136;2022-09-12T05:13:04;14.60;99.90
12568;DHT22;6349;50.904;6.136;2022-09-12T05:15:05;14.50;99.90
12568;DHT22;6349;50.904;6.136;2022-09-12T05:17:06;14.50;99.90
12568;DHT22;6349;50.904;6.136;2022-09-12T05:19:09;14.40;99.90
12568;DHT22;6349;50.904;6.136;2022-09-12T05:21:12;14.20;99.90
12568;DHT22;6349;50.904;6.136;2022-09-12T05:23:13;14.20;99.90
12568;DHT22;6349;50.904;6.136;2022-09-12T05:25:13;14.20;99.90
12568;DHT22;6349;50.904;6.136;2022-09-12T05:27:14;14.00;99.90
12568;DHT22;6349;50.904;6.136;2022-09-12T05:29:15;13.90;99.90
12568;DHT22;6349;50.904;6.136;2022-09-12T05:31:18;13.80;99.90
12568;DHT22;6349;50.904;6.136;2022-09-12T05:33:19;13.80;99.90
12568;DHT22;6349;50.904;6.136;2022-09-12T05:35:19;13.80;99.90
12568;DHT22;6349;50.904;6.136;2022-09-12T05:37:20;13.80;99.90
12568;DHT22;6349;50.904;6.136;2022-09-12T05:39:21;13.90;99.90
12568;DHT22;6349;50.904;6.136;2022-09-12T05:41:24;14.00;99.90
12568;DHT22;6349;50.904;6.136;2022-09-12T05:43:25;14.00;99.90
12568;DHT22;6349;50.904;6.136;2022-09-12T05:45:26;14.10;99.90
12568;DHT22;6349;50.904;6.136;2022-09-12T05:47:26;14.20;99.90
12568;DHT22;6349;50.904;6.136;2022-09-12T05:49:27;14.20;99.90
12568;DHT22;6349;50.904;6.136;2022-09-12T05:51:30;14.30;99.90
12568;DHT22;6349;50.904;6.136;2022-09-12T05:53:31;14.30;99.90
12568;DHT22;6349;50.904;6.136;2022-09-12T05:55:32;14.40;99.90
12568;DHT22;6349;50.904;6.136;2022-09-12T05:57:33;14.40;99.90
12568;DHT22;6349;50.904;6.136;2022-09-12T05:59:34;14.40;99.90
12568;DHT22;6349;50.904;6.136;2022-09-12T06:01:35;14.40;99.90
12568;DHT22;6349;50.904;6.136;2022-09-12T06:03:39;14.40;99.90
12568;DHT22;6349;50.904;6.136;2022-09-12T06:05:40;14.40;99.90
12568;DHT22;6349;50.904;6.136;2022-09-12T06:07:41;14.50;99.90
12568;DHT22;6349;50.904;6.136;2022-09-12T06:09:41;14.50;99.90
12568;DHT22;6349;50.904;6.136;2022-09-12T06:11:43;14.60;99.90
12568;DHT22;6349;50.904;6.136;2022-09-12T06:13:44;14.50;99.90
12568;DHT22;6349;50.904;6.136;2022-09-12T06:15:45;14.50;99.90
12568;DHT22;6349;50.904;6.136;2022-09-12T06:17:47;14.60;99.90
12568;DHT22;6349;50.904;6.136;2022-09-12T06:19:48;14.60;99.90
12568;DHT22;6349;50.904;6.136;2022-09-12T06:21:50;14.60;99.90
12568;DHT22;6349;50.904;6.136;2022-09-12T06:23:54;14.60;99.90
12568;DHT22;6349;50.904;6.136;2022-09-12T06:25:54;14.70;99.90
12568;DHT22;6349;50.904;6.136;2022-09-12T06:27:55;14.70;99.90
12568;DHT22;6349;50.904;6.136;2022-09-12T06:29:56;14.70;99.90
12568;DHT22;6349;50.904;6.136;2022-09-12T06:31:56;14.70;99.90
12568;DHT22;6349;50.904;6.136;2022-09-12T06:34:01;14.70;99.90
12568;DHT22;6349;50.904;6.136;2022-09-12T06:36:06;14.80;99.90
12568;DHT22;6349;50.904;6.136;2022-09-12T06:38:07;14.80;99.90
12568;DHT22;6349;50.904;6.136;2022-09-12T06:40:09;14.90;99.90
12568;DHT22;6349;50.904;6.136;2022-09-12T06:42:10;14.90;99.90
12568;DHT22;6349;50.904;6.136;2022-09-12T06:44:14;15.00;99.90
12568;DHT22;6349;50.904;6.136;2022-09-12T06:46:15;15.00;99.90
12568;DHT22;6349;50.904;6.136;2022-09-12T06:48:16;15.10;99.90
12568;DHT22;6349;50.904;6.136;2022-09-12T06:50:17;15.10;99.90
12568;DHT22;6349;50.904;6.136;2022-09-12T06:52:17;15.10;99.90
12568;DHT22;6349;50.904;6.136;2022-09-12T06:54:18;15.20;99.90
12568;DHT22;6349;50.904;6.136;2022-09-12T06:56:20;15.20;99.90
12568;DHT22;6349;50.904;6.136;2022-09-12T06:58:22;15.30;99.90
12568;DHT22;6349;50.904;6.136;2022-09-12T07:00:22;15.30;99.90
12568;DHT22;6349;50.904;6.136;2022-09-12T07:02:23;15.40;99.90
12568;DHT22;6349;50.904;6.136;2022-09-12T07:04:25;15.50;99.90
12568;DHT22;6349;50.904;6.136;2022-09-12T07:06:27;15.60;99.90
12568;DHT22;6349;50.904;6.136;2022-09-12T07:08:32;15.70;99.90
12568;DHT22;6349;50.904;6.136;2022-09-12T07:10:33;15.80;99.90
12568;DHT22;6349;50.904;6.136;2022-09-12T07:12:34;15.90;99.90
12568;DHT22;6349;50.904;6.136;2022-09-12T07:14:34;16.00;99.90
12568;DHT22;6349;50.904;6.136;2022-09-12T07:16:35;16.10;99.90
12568;DHT22;6349;50.904;6.136;2022-09-12T07:18:37;16.20;99.90
12568;DHT22;6349;50.904;6.136;2022-09-12T07:20:38;16.40;99.90
12568;DHT22;6349;50.904;6.136;2022-09-12T07:22:39;16.40;99.90
12568;DHT22;6349;50.904;6.136;2022-09-12T07:24:41;16.50;99.90
12568;DHT22;6349;50.904;6.136;2022-09-12T07:26:41;16.60;99.90
12568;DHT22;6349;50.904;6.136;2022-09-12T07:28:43;16.60;99.90
12568;DHT22;6349;50.904;6.136;2022-09-12T07:30:44;16.70;99.90
12568;DHT22;6349;50.904;6.136;2022-09-12T07:32:44;16.70;99.90
12568;DHT22;6349;50.904;6.136;2022-09-12T07:34:45;16.70;99.90
12568;DHT22;6349;50.904;6.136;2022-09-12T07:36:46;16.80;99.90
12568;DHT22;6349;50.904;6.136;2022-09-12T07:38:47;16.90;99.90
12568;DHT22;6349;50.904;6.136;2022-09-12T07:40:48;16.90;99.90
12568;DHT22;6349;50.904;6.136;2022-09-12T07:42:49;16.90;99.90
12568;DHT22;6349;50.904;6.136;2022-09-12T07:44:52;16.90;99.90
12568;DHT22;6349;50.904;6.136;2022-09-12T07:46:53;16.90;99.90
12568;DHT22;6349;50.904;6.136;2022-09-12T07:48:56;16.90;99.90
12568;DHT22;6349;50.904;6.136;2022-09-12T07:50:58;17.00;99.90
12568;DHT22;6349;50.904;6.136;2022-09-12T07:52:59;17.10;99.90
12568;DHT22;6349;50.904;6.136;2022-09-12T07:55:02;17.10;99.90
12568;DHT22;6349;50.904;6.136;2022-09-12T07:57:03;17.10;99.90
12568;DHT22;6349;50.904;6.136;2022-09-12T07:59:04;17.10;99.90
12568;DHT22;6349;50.904;6.136;2022-09-12T08:03:09;17.00;99.90
12568;DHT22;6349;50.904;6.136;2022-09-12T08:05:10;17.10;99.90
12568;DHT22;6349;50.904;6.136;2022-09-12T08:07:10;17.10;99.90
12568;DHT22;6349;50.904;6.136;2022-09-12T08:09:12;17.10;99.90
12568;DHT22;6349;50.904;6.136;2022-09-12T08:11:17;17.20;99.90
12568;DHT22;6349;50.904;6.136;2022-09-12T08:13:18;17.30;99.90
12568;DHT22;6349;50.904;6.136;2022-09-12T08:15:18;17.40;99.90
12568;DHT22;6349;50.904;6.136;2022-09-12T08:17:19;17.50;99.90
12568;DHT22;6349;50.904;6.136;2022-09-12T08:19:20;17.50;99.90
12568;DHT22;6349;50.904;6.136;2022-09-12T08:21:24;17.60;99.90
12568;DHT22;6349;50.904;6.136;2022-09-12T08:23:25;17.70;99.90
12568;DHT22;6349;50.904;6.136;2022-09-12T08:25:28;17.70;99.90
12568;DHT22;6349;50.904;6.136;2022-09-12T08:27:28;17.70;99.90
12568;DHT22;6349;50.904;6.136;2022-09-12T08:29:29;17.70;99.90
12568;DHT22;6349;50.904;6.136;2022-09-12T08:31:30;17.80;99.90
12568;DHT22;6349;50.904;6.136;2022-09-12T08:33:38;17.80;99.90
12568;DHT22;6349;50.904;6.136;2022-09-12T08:35:38;17.90;99.90
12568;DHT22;6349;50.904;6.136;2022-09-12T08:37:39;18.10;99.90
12568;DHT22;6349;50.904;6.136;2022-09-12T08:39:40;18.10;99.90
12568;DHT22;6349;50.904;6.136;2022-09-12T08:41:43;18.20;99.90
12568;DHT22;6349;50.904;6.136;2022-09-12T08:44:08;18.20;99.90
12568;DHT22;6349;50.904;6.136;2022-09-12T08:46:18;18.20;99.90
12568;DHT22;6349;50.904;6.136;2022-09-12T08:48:20;18.20;99.90
12568;DHT22;6349;50.904;6.136;2022-09-12T08:50:21;18.20;99.90
12568;DHT22;6349;50.904;6.136;2022-09-12T08:52:49;18.30;99.90
12568;DHT22;6349;50.904;6.136;2022-09-12T08:54:51;18.40;99.90
12568;DHT22;6349;50.904;6.136;2022-09-12T08:56:58;18.50;99.90
12568;DHT22;6349;50.904;6.136;2022-09-12T08:59:01;18.60;99.90
12568;DHT22;6349;50.904;6.136;2022-09-12T09:01:31;18.60;99.90
12568;DHT22;6349;50.904;6.136;2022-09-12T09:09:05;18.80;99.90
12568;DHT22;6349;50.904;6.136;2022-09-12T09:11:33;18.90;99.90
12568;DHT22;6349;50.904;6.136;2022-09-12T09:16:32;19.10;99.90
12568;DHT22;6349;50.904;6.136;2022-09-12T09:18:34;19.10;99.90
12568;DHT22;6349;50.904;6.136;2022-09-12T09:20:56;19.20;99.90
12568;DHT22;6349;50.904;6.136;2022-09-12T09:25:39;19.20;99.90
12568;DHT22;6349;50.904;6.136;2022-09-12T09:27:47;19.30;99.90
12568;DHT22;6349;50.904;6.136;2022-09-12T09:29:52;19.40;99.90
12568;DHT22;6349;50.904;6.136;2022-09-12T09:31:55;19.40;99.90
12568;DHT22;6349;50.904;6.136;2022-09-12T09:33:57;19.40;99.90
12568;DHT22;6349;50.904;6.136;2022-09-12T09:36:09;19.40;99.90
12568;DHT22;6349;50.904;6.136;2022-09-12T09:38:44;19.40;99.90
12568;DHT22;6349;50.904;6.136;2022-09-12T09:41:02;19.40;99.90
12568;DHT22;6349;50.904;6.136;2022-09-12T09:43:23;19.50;99.90
12568;DHT22;6349;50.904;6.136;2022-09-12T09:45:28;19.60;99.90
12568;DHT22;6349;50.904;6.136;2022-09-12T09:47:29;19.60;99.90
12568;DHT22;6349;50.904;6.136;2022-09-12T09:49:32;19.60;99.90
12568;DHT22;6349;50.904;6.136;2022-09-12T09:51:37;19.60;99.90
12568;DHT22;6349;50.904;6.136;2022-09-12T09:53:50;19.60;99.90
12568;DHT22;6349;50.904;6.136;2022-09-12T09:55:54;19.70;99.90
12568;DHT22;6349;50.904;6.136;2022-09-12T09:57:55;19.90;99.90
12568;DHT22;6349;50.904;6.136;2022-09-12T09:59:56;19.90;99.90
12568;DHT22;6349;50.904;6.136;2022-09-12T10:02:02;19.90;99.90
12568;DHT22;6349;50.904;6.136;2022-09-12T10:04:03;19.90;99.90
12568;DHT22;6349;50.904;6.136;2022-09-12T10:06:20;19.90;99.90
12568;DHT22;6349;50.904;6.136;2022-09-12T10:08:27;19.90;99.90
12568;DHT22;6349;50.904;6.136;2022-09-12T10:10:28;19.90;99.90
12568;DHT22;6349;50.904;6.136;2022-09-12T10:12:29;20.00;99.90
12568;DHT22;6349;50.904;6.136;2022-09-12T10:16:50;19.90;99.90
12568;DHT22;6349;50.904;6.136;2022-09-12T10:18:54;20.00;99.90
12568;DHT22;6349;50.904;6.136;2022-09-12T10:20:55;20.10;99.90
12568;DHT22;6349;50.904;6.136;2022-09-12T10:22:58;20.10;99.90
12568;DHT22;6349;50.904;6.136;2022-09-12T10:25:00;20.10;99.90
12568;DHT22;6349;50.904;6.136;2022-09-12T10:27:19;20.20;99.90
12568;DHT22;6349;50.904;6.136;2022-09-12T10:29:24;20.30;99.90
12568;DHT22;6349;50.904;6.136;2022-09-12T10:31:28;20.30;99.90
12568;DHT22;6349;50.904;6.136;2022-09-12T10:33:45;20.30;99.90
12568;DHT22;6349;50.904;6.136;2022-09-12T10:35:52;20.30;99.90
12568;DHT22;6349;50.904;6.136;2022-09-12T10:37:58;20.30;99.90
12568;DHT22;6349;50.904;6.136;2022-09-12T10:40:00;20.30;99.90
12568;DHT22;6349;50.904;6.136;2022-09-12T10:42:03;20.40;99.90
12568;DHT22;6349;50.904;6.136;2022-09-12T10:44:14;20.40;99.90
12568;DHT22;6349;50.904;6.136;2022-09-12T10:48:36;20.50;99.90
12568;DHT22;6349;50.904;6.136;2022-09-12T10:50:41;20.50;99.90
12568;DHT22;6349;50.904;6.136;2022-09-12T10:52:42;20.50;99.90
12568;DHT22;6349;50.904;6.136;2022-09-12T10:54:42;20.50;99.90
12568;DHT22;6349;50.904;6.136;2022-09-12T10:57:23;20.50;99.90
12568;DHT22;6349;50.904;6.136;2022-09-12T10:59:32;20.50;99.90
12568;DHT22;6349;50.904;6.136;2022-09-12T11:01:40;20.60;99.90
12568;DHT22;6349;50.904;6.136;2022-09-12T11:06:38;20.80;99.90
12568;DHT22;6349;50.904;6.136;2022-09-12T11:08:51;21.00;99.90
12568;DHT22;6349;50.904;6.136;2022-09-12T11:11:06;21.10;99.90
12568;DHT22;6349;50.904;6.136;2022-09-12T11:13:20;21.20;99.90
12568;DHT22;6349;50.904;6.136;2022-09-12T11:18:04;21.30;99.90
12568;DHT22;6349;50.904;6.136;2022-09-12T11:23:05;21.40;99.90
12568;DHT22;6349;50.904;6.136;2022-09-12T11:25:36;21.30;99.90
12568;DHT22;6349;50.904;6.136;2022-09-12T11:27:48;21.50;99.90
12568;DHT22;6349;50.904;6.136;2022-09-12T11:29:58;21.50;99.90
12568;DHT22;6349;50.904;6.136;2022-09-12T11:34:36;21.50;99.90
12568;DHT22;6349;50.904;6.136;2022-09-12T11:39:15;21.70;99.90
12568;DHT22;6349;50.904;6.136;2022-09-12T11:41:24;21.70;99.90
12568;DHT22;6349;50.904;6.136;2022-09-12T11:45:53;21.80;99.90
12568;DHT22;6349;50.904;6.136;2022-09-12T11:48:00;21.80;99.90
12568;DHT22;6349;50.904;6.136;2022-09-12T11:50:13;21.80;99.90
12568;DHT22;6349;50.904;6.136;2022-09-12T11:52:19;21.90;99.90
12568;DHT22;6349;50.904;6.136;2022-09-12T11:55:15;21.90;99.90
12568;DHT22;6349;50.904;6.136;2022-09-12T11:59:48;22.00;99.90
12568;DHT22;6349;50.904;6.136;2022-09-12T12:01:54;22.00;99.90
12568;DHT22;6349;50.904;6.136;2022-09-12T12:04:02;22.10;99.90
12568;DHT22;6349;50.904;6.136;2022-09-12T12:08:42;22.20;99.90
12568;DHT22;6349;50.904;6.136;2022-09-12T12:10:52;22.20;99.90
12568;DHT22;6349;50.904;6.136;2022-09-12T12:12:54;22.30;99.90
12568;DHT22;6349;50.904;6.136;2022-09-12T12:14:56;22.40;99.90
12568;DHT22;6349;50.904;6.136;2022-09-12T12:16:58;22.30;99.90
12568;DHT22;6349;50.904;6.136;2022-09-12T12:19:00;22.50;99.90
12568;DHT22;6349;50.904;6.136;2022-09-12T12:21:30;22.50;99.90
12568;DHT22;6349;50.904;6.136;2022-09-12T12:23:33;22.60;99.90
12568;DHT22;6349;50.904;6.136;2022-09-12T12:25:39;22.70;99.90
12568;DHT22;6349;50.904;6.136;2022-09-12T12:27:57;22.70;99.90
12568;DHT22;6349;50.904;6.136;2022-09-12T12:30:00;22.70;99.90
12568;DHT22;6349;50.904;6.136;2022-09-12T12:34:25;22.70;99.90
12568;DHT22;6349;50.904;6.136;2022-09-12T12:36:31;22.70;99.90
12568;DHT22;6349;50.904;6.136;2022-09-12T12:38:40;22.80;99.90
12568;DHT22;6349;50.904;6.136;2022-09-12T12:40:41;22.70;99.90
12568;DHT22;6349;50.904;6.136;2022-09-12T12:44:49;22.70;99.90
12568;DHT22;6349;50.904;6.136;2022-09-12T12:47:26;22.70;99.90
12568;DHT22;6349;50.904;6.136;2022-09-12T12:49:28;22.80;99.90
12568;DHT22;6349;50.904;6.136;2022-09-12T12:52:02;22.90;99.90
12568;DHT22;6349;50.904;6.136;2022-09-12T12:53:52;22.90;99.90
12568;DHT22;6349;50.904;6.136;2022-09-12T12:55:55;23.00;99.90
12568;DHT22;6349;50.904;6.136;2022-09-12T12:57:57;23.00;99.90
12568;DHT22;6349;50.904;6.136;2022-09-12T13:00:06;23.10;99.90
12568;DHT22;6349;50.904;6.136;2022-09-12T13:02:18;23.10;99.90
12568;DHT22;6349;50.904;6.136;2022-09-12T13:04:23;23.10;99.90
12568;DHT22;6349;50.904;6.136;2022-09-12T13:08:42;23.20;99.90
12568;DHT22;6349;50.904;6.136;2022-09-12T13:13:07;23.40;99.90
12568;DHT22;6349;50.904;6.136;2022-09-12T13:17:42;23.60;99.90
12568;DHT22;6349;50.904;6.136;2022-09-12T13:19:44;23.60;99.90
12568;DHT22;6349;50.904;6.136;2022-09-12T13:21:54;23.80;99.90
12568;DHT22;6349;50.904;6.136;2022-09-12T13:24:01;23.80;99.90
12568;DHT22;6349;50.904;6.136;2022-09-12T13:26:11;23.90;99.90
12568;DHT22;6349;50.904;6.136;2022-09-12T13:28:15;23.90;99.90
12568;DHT22;6349;50.904;6.136;2022-09-12T13:30:17;23.90;99.90
12568;DHT22;6349;50.904;6.136;2022-09-12T13:32:18;23.90;99.90
12568;DHT22;6349;50.904;6.136;2022-09-12T13:34:24;23.90;99.90
12568;DHT22;6349;50.904;6.136;2022-09-12T13:36:50;24.00;99.90
12568;DHT22;6349;50.904;6.136;2022-09-12T13:41:59;24.10;99.90
12568;DHT22;6349;50.904;6.136;2022-09-12T13:44:03;24.10;99.90
12568;DHT22;6349;50.904;6.136;2022-09-12T13:46:14;24.20;99.90
12568;DHT22;6349;50.904;6.136;2022-09-12T13:48:19;24.20;99.90
12568;DHT22;6349;50.904;6.136;2022-09-12T13:50:27;24.30;99.90
12568;DHT22;6349;50.904;6.136;2022-09-12T13:52:33;24.20;99.90
12568;DHT22;6349;50.904;6.136;2022-09-12T13:54:36;24.30;99.90
12568;DHT22;6349;50.904;6.136;2022-09-12T13:56:46;24.30;99.90
12568;DHT22;6349;50.904;6.136;2022-09-12T13:58:53;24.50;99.90
12568;DHT22;6349;50.904;6.136;2022-09-12T14:01:15;24.50;99.90
12568;DHT22;6349;50.904;6.136;2022-09-12T14:03:40;24.50;99.90
12568;DHT22;6349;50.904;6.136;2022-09-12T14:06:01;24.60;99.90
12568;DHT22;6349;50.904;6.136;2022-09-12T14:08:06;24.70;99.90
12568;DHT22;6349;50.904;6.136;2022-09-12T14:10:14;24.70;99.90
12568;DHT22;6349;50.904;6.136;2022-09-12T14:14:40;24.90;99.90
12568;DHT22;6349;50.904;6.136;2022-09-12T14:16:43;24.80;99.90
12568;DHT22;6349;50.904;6.136;2022-09-12T14:18:46;24.80;99.90
12568;DHT22;6349;50.904;6.136;2022-09-12T14:20:47;24.80;99.90
12568;DHT22;6349;50.904;6.136;2022-09-12T14:22:51;24.70;99.90
12568;DHT22;6349;50.904;6.136;2022-09-12T14:24:53;24.80;99.90
12568;DHT22;6349;50.904;6.136;2022-09-12T14:26:54;24.80;99.90
12568;DHT22;6349;50.904;6.136;2022-09-12T14:28:56;24.80;99.90
12568;DHT22;6349;50.904;6.136;2022-09-12T14:31:32;24.80;99.90
12568;DHT22;6349;50.904;6.136;2022-09-12T14:33:20;24.90;99.90
12568;DHT22;6349;50.904;6.136;2022-09-12T14:35:21;25.00;99.90
12568;DHT22;6349;50.904;6.136;2022-09-12T14:37:24;25.00;99.90